Time;durP1;ratioP1;P1;durP2;ratioP2;P2;SDS_P1;SDS_P2;PMS_P1;PMS_P2;Temp;Humidity;BMP_temperature;BMP_pressure;BME280_temperature;BME280_humidity;BME280_pressure;Samples;Min_cycle;Max_cycle;Signal;HPM_P1;HPM_P2
2024/01/22 00:01:01;;;;;;;;;;;4.60;99.90;;;3.78;100.00;98314.13;5041717;28;1485;-71
2024/01/22 00:03:29;;;;;;;;;;;4.70;99.90;;;3.77;100.00;98303.00;5025682;28;1416;-71
2024/01/22 00:05:55;;;;;;;;;;;4.70;99.90;;;3.61;100.00;98283.41;5027717;28;1376;-71
2024/01/22 00:08:22;;;;;;;;;;;4.60;99.90;;;3.70;100.00;98282.50;5042848;28;1435;-71
2024/01/22 00:10:49;;;;;;;;;;;4.60;99.90;;;3.54;100.00;98256.03;5039702;28;2007;-71
2024/01/22 00:13:16;;;;;;;;;;;4.60;99.90;;;3.72;100.00;98284.22;5026945;28;1746;-70
2024/01/22 00:15:43;;;;;;;;;;;4.60;99.90;;;3.58;100.00;98262.00;5040931;28;1389;-71
2024/01/22 00:18:10;;;;;;;;;;;4.60;99.90;;;3.48;100.00;98256.91;5040055;28;1355;-70
2024/01/22 00:20:37;;;;;;;;;;;4.50;99.90;;;3.56;100.00;98257.75;5025375;28;1351;-71
2024/01/22 00:23:04;;;;;;;;;;;4.50;99.90;;;3.65;100.00;98263.69;5035123;28;1711;-71
2024/01/22 00:25:31;;;;;;;;;;;4.60;99.90;;;3.72;100.00;98250.00;5040596;28;1474;-70
2024/01/22 00:27:58;;;;;;;;;;;4.60;99.90;;;3.75;100.00;98239.69;5027012;28;1450;-71
2024/01/22 00:30:42;;;;;;;;;;;4.60;99.90;;;3.70;100.00;98220.91;5040165;28;1997;-71
2024/01/22 00:33:09;;;;;;;;;;;4.70;99.90;;;3.67;100.00;98252.56;5042134;28;1347;-70
2024/01/22 00:35:36;;;;;;;;;;;4.70;99.90;;;3.73;100.00;98242.25;5038766;28;1503;-70
2024/01/22 00:38:03;;;;;;;;;;;4.70;99.90;;;3.69;100.00;98237.16;5027131;28;1358;-71
2024/01/22 00:40:30;;;;;;;;;;;4.70;99.90;;;3.63;100.00;98240.59;5023747;28;1400;-69
2024/01/22 00:42:57;;;;;;;;;;;4.70;99.90;;;3.72;100.00;98225.16;5041884;28;1389;-71
2024/01/22 00:45:24;;;;;;;;;;;4.70;99.90;;;3.62;100.00;98243.16;5040237;28;1287;-70
2024/01/22 00:47:50;;;;;;;;;;;4.70;99.90;;;3.61;100.00;98237.19;5040303;28;1342;-70
2024/01/22 00:50:17;;;;;;;;;;;4.60;99.90;;;3.68;100.00;98220.91;5024990;28;1894;-71
2024/01/22 00:52:44;;;;;;;;;;;4.60;99.90;;;3.63;100.00;98222.63;5041862;28;1102;-71
2024/01/22 00:55:11;;;;;;;;;;;4.60;99.90;;;3.64;100.00;98216.63;5025047;28;1504;-71
2024/01/22 00:57:38;;;;;;;;;;;4.60;99.90;;;3.50;100.00;98224.38;5039648;28;1257;-71
2024/01/22 01:00:07;;;;;;;;;;;4.60;99.90;;;3.60;100.00;98242.31;5040133;28;1009;-70
2024/01/22 01:02:34;;;;;;;;;;;4.60;99.90;;;3.69;100.00;98238.00;5026510;28;1356;-71
2024/01/22 01:05:01;;;;;;;;;;;4.60;99.90;;;3.74;100.00;98243.09;5039395;28;1374;-71
2024/01/22 01:07:28;;;;;;;;;;;4.70;99.90;;;3.77;100.00;98241.38;5040831;28;1308;-71
2024/01/22 01:09:54;;;;;;;;;;;4.60;99.90;;;3.76;100.00;98247.41;5027556;28;2030;-71
2024/01/22 01:12:21;;;;;;;;;;;4.60;99.90;;;3.58;100.00;98232.06;5023477;28;1364;-70
2024/01/22 01:14:48;;;;;;;;;;;4.60;99.90;;;3.70;100.00;98251.72;5041453;28;1358;-71
2024/01/22 01:17:15;;;;;;;;;;;4.70;99.90;;;3.78;100.00;98225.09;5039780;28;1371;-71
2024/01/22 01:19:42;;;;;;;;;;;4.70;99.90;;;3.93;100.00;98233.63;5009580;28;1230;-71
2024/01/22 01:22:09;;;;;;;;;;;4.90;99.90;;;3.89;100.00;98221.66;5041859;28;1444;-71
2024/01/22 01:24:36;;;;;;;;;;;4.90;99.90;;;3.91;100.00;98210.50;5041524;28;1365;-71
2024/01/22 01:27:03;;;;;;;;;;;4.90;99.90;;;3.91;100.00;98212.22;5025591;28;1478;-70
2024/01/22 01:29:29;;;;;;;;;;;4.90;99.90;;;4.10;100.00;98211.22;5042452;28;1275;-71
2024/01/22 01:31:56;;;;;;;;;;;4.90;99.90;;;3.91;100.00;98214.78;5039651;28;1946;-71
2024/01/22 01:34:23;;;;;;;;;;;4.90;99.90;;;4.05;100.00;98217.28;5028076;28;1615;-70
2024/01/22 01:36:50;;;;;;;;;;;4.90;99.90;;;4.00;100.00;98195.91;5040396;28;1441;-71
2024/01/22 01:39:17;;;;;;;;;;;5.00;99.90;;;4.16;100.00;98192.38;5041466;28;1160;-70
2024/01/22 01:41:48;;;;;;;;;;;5.00;99.90;;;4.24;100.00;98200.00;5036758;28;1476;-71
2024/01/22 01:44:15;;;;;;;;;;;5.10;99.90;;;4.23;100.00;98198.31;5044194;28;1441;-71
2024/01/22 01:46:42;;;;;;;;;;;5.20;99.90;;;4.29;100.00;98188.84;5042829;28;1226;-71
2024/01/22 01:49:09;;;;;;;;;;;5.20;99.90;;;4.30;100.00;98166.56;5038661;28;1304;-71
2024/01/22 01:51:37;;;;;;;;;;;5.20;99.90;;;4.43;100.00;98160.47;5036635;28;1994;-71
2024/01/22 01:54:06;;;;;;;;;;;5.30;99.90;;;4.63;100.00;98186.00;5039439;28;1406;-71
2024/01/22 01:56:33;;;;;;;;;;;5.40;99.90;;;4.50;100.00;98125.28;5043439;28;1448;-71
2024/01/22 01:59:00;;;;;;;;;;;5.40;99.90;;;4.48;100.00;98139.84;5037726;28;1442;-71
2024/01/22 02:01:27;;;;;;;;;;;5.40;99.90;;;4.49;100.00;98119.25;5041704;28;1253;-71
2024/01/22 02:03:54;;;;;;;;;;;5.40;99.90;;;4.42;100.00;98140.75;5038596;28;1391;-71
2024/01/22 02:06:21;;;;;;;;;;;5.40;99.90;;;4.50;100.00;98081.56;5040400;28;1162;-70
2024/01/22 02:08:53;;;;;;;;;;;5.40;99.90;;;4.69;100.00;98131.06;5044057;28;1148;-70
2024/01/22 02:11:21;;;;;;;;;;;5.50;99.90;;;4.64;100.00;98114.84;5041035;28;1906;-71
2024/01/22 02:13:48;;;;;;;;;;;5.50;99.90;;;4.74;100.00;98121.59;5042001;28;1384;-71
2024/01/22 02:16:15;;;;;;;;;;;5.50;99.90;;;4.62;100.00;98130.28;5042959;28;1366;-70
2024/01/22 02:18:42;;;;;;;;;;;5.50;99.90;;;4.59;100.00;98105.44;5026925;28;1468;-71
2024/01/22 02:21:09;;;;;;;;;;;5.50;99.90;;;4.58;100.00;98085.75;5042519;28;1816;-70
2024/01/22 02:23:36;;;;;;;;;;;5.40;99.90;;;4.70;100.00;98068.47;5040525;28;1612;-71
2024/01/22 02:26:03;;;;;;;;;;;5.60;99.90;;;4.63;100.00;98077.13;5027267;28;1274;-70
2024/01/22 02:28:31;;;;;;;;;;;5.60;99.90;;;4.66;100.00;98066.84;5032753;28;1384;-71
2024/01/22 02:30:59;;;;;;;;;;;5.60;99.90;;;4.64;100.00;98087.41;5040929;28;1910;-70
2024/01/22 02:33:25;;;;;;;;;;;5.60;99.90;;;4.71;100.00;98063.31;5042939;28;1256;-71
2024/01/22 02:35:52;;;;;;;;;;;5.60;99.90;;;4.68;100.00;98062.53;5043499;28;1373;-71
2024/01/22 02:38:19;;;;;;;;;;;5.60;99.90;;;4.80;100.00;98042.63;5043002;28;1238;-71
2024/01/22 02:40:46;;;;;;;;;;;5.80;99.90;;;4.86;100.00;98067.44;5042010;28;1187;-71
2024/01/22 02:43:13;;;;;;;;;;;5.70;99.90;;;4.94;100.00;98036.47;5039448;28;1308;-70
2024/01/22 02:45:40;;;;;;;;;;;5.90;99.90;;;5.27;100.00;98014.59;5041774;28;1458;-71
2024/01/22 02:48:07;;;;;;;;;;;6.00;99.90;;;5.14;100.00;97987.34;5042032;28;1048;-70
2024/01/22 02:50:34;;;;;;;;;;;6.10;99.90;;;5.15;100.00;98035.34;5043290;28;1942;-71
2024/01/22 02:53:01;;;;;;;;;;;6.10;99.90;;;4.98;100.00;97973.84;5029540;28;1346;-71
2024/01/22 02:55:28;;;;;;;;;;;6.00;99.90;;;5.03;100.00;97965.16;5046412;28;1418;-71
2024/01/22 02:57:54;;;;;;;;;;;6.00;99.90;;;5.17;100.00;98008.72;5042884;28;1334;-71
2024/01/22 03:00:21;;;;;;;;;;;6.00;99.90;;;5.18;100.00;98015.56;5043178;28;1297;-71
2024/01/22 03:02:48;;;;;;;;;;;6.10;99.90;;;5.21;100.00;97996.66;5043165;28;1296;-71
2024/01/22 03:05:16;;;;;;;;;;;6.10;99.90;;;5.12;100.00;97977.06;5041192;28;1437;-71
2024/01/22 03:07:44;;;;;;;;;;;6.10;99.90;;;5.07;100.00;97963.41;5045961;28;1521;-70
2024/01/22 03:10:11;;;;;;;;;;;6.00;99.90;;;5.17;100.00;97972.69;5030446;28;1929;-72
2024/01/22 03:12:37;;;;;;;;;;;6.10;99.90;;;5.24;100.00;97984.63;5026632;28;1387;-70
2024/01/22 03:15:05;;;;;;;;;;;6.10;99.90;;;5.34;100.00;98044.53;5043201;28;1311;-71
2024/01/22 03:17:32;;;;;;;;;;;6.10;99.90;;;5.28;100.00;97998.28;5028513;28;1310;-71
2024/01/22 03:19:58;;;;;;;;;;;6.20;99.90;;;5.23;100.00;98038.69;5030962;28;1255;-70
2024/01/22 03:22:26;;;;;;;;;;;6.10;99.90;;;5.12;100.00;97996.78;5041384;28;1339;-70
2024/01/22 03:24:53;;;;;;;;;;;6.10;99.90;;;5.16;100.00;97975.31;5043825;28;1441;-70
2024/01/22 03:27:19;;;;;;;;;;;6.10;99.90;;;5.13;100.00;97962.47;5039760;28;1231;-71
2024/01/22 03:29:46;;;;;;;;;;;6.10;99.90;;;5.25;100.00;98018.91;5042244;28;1531;-71
2024/01/22 03:32:13;;;;;;;;;;;6.10;99.90;;;5.16;100.00;97981.28;5040902;28;1902;-70
2024/01/22 03:34:40;;;;;;;;;;;6.10;99.90;;;5.28;100.00;97969.13;5038585;28;1298;-71
2024/01/22 03:37:07;;;;;;;;;;;6.10;99.90;;;5.13;100.00;97968.47;5040414;28;1471;-71
2024/01/22 03:39:34;;;;;;;;;;;6.10;99.90;;;5.04;100.00;97960.91;5030313;28;1236;-71
2024/01/22 03:42:01;;;;;;;;;;;6.10;99.90;;;5.14;100.00;97929.00;5024426;28;1266;-71
2024/01/22 03:44:27;;;;;;;;;;;6.00;99.90;;;5.13;100.00;97939.28;5026606;28;1304;-71
2024/01/22 03:46:55;;;;;;;;;;;6.10;99.90;;;5.27;100.00;97916.78;5040624;28;1362;-71
2024/01/22 03:49:22;;;;;;;;;;;6.10;99.90;;;5.30;100.00;97954.50;5039970;28;1265;-71
2024/01/22 03:51:49;;;;;;;;;;;6.10;99.90;;;5.30;100.00;97937.31;5040077;28;1898;-71
2024/01/22 03:54:16;;;;;;;;;;;6.30;99.90;;;5.30;100.00;97969.94;5038170;28;1394;-71
2024/01/22 03:56:43;;;;;;;;;;;6.20;99.90;;;5.22;100.00;97926.28;5044316;28;1363;-71
2024/01/22 03:59:11;;;;;;;;;;;6.20;99.90;;;5.27;100.00;97906.50;5041180;28;1297;-71
2024/01/22 04:01:37;;;;;;;;;;;6.10;99.90;;;5.15;100.00;97916.97;5027010;28;1306;-70
2024/01/22 04:04:04;;;;;;;;;;;6.10;99.90;;;5.11;100.00;97926.47;5028544;28;1315;-70
2024/01/22 04:06:31;;;;;;;;;;;6.00;99.90;;;5.15;100.00;97922.13;5043091;28;1245;-71
2024/01/22 04:08:58;;;;;;;;;;;6.10;99.90;;;5.13;100.00;97908.41;5029642;28;1319;-70
2024/01/22 04:11:26;;;;;;;;;;;6.10;99.90;;;5.07;100.00;97898.25;5043531;28;1902;-71
2024/01/22 04:13:53;;;;;;;;;;;6.10;99.90;;;5.16;100.00;97903.25;5036672;28;1386;-72
2024/01/22 04:16:21;;;;;;;;;;;6.10;99.90;;;5.17;100.00;97910.06;5038328;28;1155;-71
2024/01/22 04:18:48;;;;;;;;;;;6.10;99.90;;;5.06;100.00;97902.53;5043345;28;1172;-71
2024/01/22 04:21:15;;;;;;;;;;;6.00;99.90;;;5.23;100.00;97923.69;5027374;28;1702;-71
2024/01/22 04:23:42;;;;;;;;;;;6.10;99.90;;;5.20;100.00;97920.31;5041800;28;1342;-71
2024/01/22 04:26:09;;;;;;;;;;;6.10;99.90;;;5.02;100.00;97900.88;5040782;28;1259;-71
2024/01/22 04:28:36;;;;;;;;;;;6.00;99.90;;;5.06;100.00;97906.81;5035248;28;1199;-70
2024/01/22 04:31:03;;;;;;;;;;;6.00;99.90;;;5.01;100.00;97876.84;5033671;28;2017;-71
2024/01/22 04:33:29;;;;;;;;;;;6.00;99.90;;;5.14;100.00;97894.69;5040537;28;1401;-71
2024/01/22 04:35:57;;;;;;;;;;;6.00;99.90;;;5.36;100.00;97908.06;5040245;28;1507;-70
2024/01/22 04:38:26;;;;;;;;;;;6.10;99.90;;;5.27;100.00;97932.25;5042257;28;1256;-70
2024/01/22 04:40:53;;;;;;;;;;;6.10;99.90;;;5.41;100.00;97916.56;5024841;28;1406;-70
2024/01/22 04:43:22;;;;;;;;;;;6.30;99.90;;;5.29;100.00;97891.88;5040682;28;1187;-71
2024/01/22 04:45:49;;;;;;;;;;;6.30;99.90;;;5.32;100.00;97909.00;5026020;28;1311;-70
2024/01/22 04:48:17;;;;;;;;;;;6.20;99.90;;;5.39;100.00;97905.44;5041554;28;1642;-70
2024/01/22 04:50:44;;;;;;;;;;;6.20;99.90;;;5.42;100.00;97913.94;5041244;28;2004;-70
2024/01/22 04:53:11;;;;;;;;;;;6.30;99.90;;;5.47;100.00;97903.56;5039714;28;1247;-70
2024/01/22 04:55:38;;;;;;;;;;;6.30;99.90;;;5.36;100.00;97884.88;5038751;28;1449;-71
2024/01/22 04:58:04;;;;;;;;;;;6.30;99.90;;;5.52;100.00;97904.38;5038798;28;1464;-71
2024/01/22 05:00:31;;;;;;;;;;;6.40;99.90;;;5.48;100.00;97861.53;5026100;28;1374;-71
2024/01/22 05:03:04;;;;;;;;;;;6.40;99.90;;;5.53;100.00;97882.88;5042217;28;1227;-71
2024/01/22 05:05:32;;;;;;;;;;;6.40;99.90;;;5.53;100.00;97856.28;5022991;28;1371;-71
2024/01/22 05:08:00;;;;;;;;;;;6.50;99.90;;;5.59;100.00;97858.75;5040441;28;1218;-70
2024/01/22 05:10:27;;;;;;;;;;;6.40;99.90;;;5.59;100.00;97843.31;5027188;28;1323;-71
2024/01/22 05:12:54;;;;;;;;;;;6.50;99.90;;;5.57;100.00;97876.81;5040410;28;2007;-71
2024/01/22 05:15:21;;;;;;;;;;;6.50;99.90;;;5.66;100.00;97870.66;5037723;28;1284;-70
2024/01/22 05:17:48;;;;;;;;;;;6.50;99.90;;;5.63;100.00;97910.19;5041199;28;1238;-71
2024/01/22 05:20:15;;;;;;;;;;;6.50;99.90;;;5.63;100.00;97860.38;5041161;28;1290;-71
2024/01/22 05:22:44;;;;;;;;;;;6.60;99.90;;;5.60;100.00;97865.59;5039319;28;1476;-71
2024/01/22 05:25:12;;;;;;;;;;;6.60;99.90;;;5.61;100.00;97857.84;5037437;28;1351;-70
2024/01/22 05:27:41;;;;;;;;;;;6.50;99.90;;;5.68;100.00;97835.41;5022006;28;1306;-71
2024/01/22 05:30:09;;;;;;;;;;;6.60;99.90;;;5.93;100.00;97874.44;5021866;28;1576;-71
2024/01/22 05:32:36;;;;;;;;;;;6.60;99.90;;;5.83;100.00;97868.59;5036454;28;1922;-71
2024/01/22 05:35:04;;;;;;;;;;;6.70;99.90;;;5.66;100.00;97845.75;5040312;28;1391;-70
2024/01/22 05:37:31;;;;;;;;;;;6.70;99.90;;;5.88;100.00;97868.50;5024363;28;1460;-71
2024/01/22 05:39:58;;;;;;;;;;;6.70;99.90;;;5.85;100.00;97811.91;5034208;28;1282;-71
2024/01/22 05:42:25;;;;;;;;;;;6.70;99.90;;;6.03;100.00;97834.75;5024104;28;1308;-71
2024/01/22 05:44:51;;;;;;;;;;;6.80;99.90;;;5.85;100.00;97815.31;5038310;28;1446;-70
2024/01/22 05:47:19;;;;;;;;;;;6.80;99.90;;;6.12;100.00;97794.22;5040204;28;1151;-72
2024/01/22 05:49:46;;;;;;;;;;;6.90;99.90;;;6.02;100.00;97806.41;5042638;28;1203;-70
2024/01/22 05:52:14;;;;;;;;;;;6.90;99.90;;;6.23;100.00;97810.31;5046960;28;2029;-71
2024/01/22 05:54:41;;;;;;;;;;;7.00;99.90;;;6.03;100.00;97808.97;5046648;28;1442;-71
2024/01/22 05:57:09;;;;;;;;;;;6.90;99.90;;;6.16;100.00;97773.50;5032155;28;1256;-69
2024/01/22 05:59:38;;;;;;;;;;;7.00;99.90;;;6.38;100.00;97838.31;5028985;28;1243;-71
2024/01/22 06:02:05;;;;;;;;;;;7.10;99.90;;;6.24;100.00;97775.91;5029408;28;2097;-71
2024/01/22 06:04:32;;;;;;;;;;;7.10;99.90;;;6.37;100.00;97755.84;5031487;28;1390;-70
2024/01/22 06:06:59;;;;;;;;;;;7.20;99.90;;;6.52;100.00;97752.91;5045152;28;1653;-71
2024/01/22 06:09:31;;;;;;;;;;;7.30;99.90;;;6.58;100.00;97747.59;5034116;28;1276;-71
2024/01/22 06:11:58;;;;;;;;;;;7.40;99.90;;;6.72;100.00;97787.69;5045686;28;1996;-71
2024/01/22 06:14:25;;;;;;;;;;;7.50;99.90;;;6.77;100.00;97793.59;5045654;28;1335;-71
2024/01/22 06:16:52;;;;;;;;;;;7.50;99.90;;;6.75;100.00;97809.13;5015926;28;1144;-70
2024/01/22 06:19:19;;;;;;;;;;;7.50;99.90;;;6.82;100.00;97795.19;5029677;28;1192;-72
2024/01/22 06:21:46;;;;;;;;;;;7.60;99.90;;;6.73;100.00;97743.81;5044095;28;1141;-71
2024/01/22 06:24:12;;;;;;;;;;;7.70;99.90;;;6.79;100.00;97722.16;5031030;28;1284;-71
2024/01/22 06:26:39;;;;;;;;;;;7.70;99.90;;;6.82;100.00;97760.78;5039133;28;1592;-70
2024/01/22 06:29:11;;;;;;;;;;;7.80;99.90;;;6.82;100.00;97773.69;5028458;28;1057;-71
2024/01/22 06:31:38;;;;;;;;;;;7.70;99.90;;;6.83;100.00;97758.19;5045627;28;1981;-71
2024/01/22 06:34:04;;;;;;;;;;;7.70;99.90;;;6.91;100.00;97727.00;5047753;28;1284;-71
2024/01/22 06:36:31;;;;;;;;;;;7.70;99.90;;;6.72;100.00;97742.09;5025768;28;1189;-71
2024/01/22 06:38:58;;;;;;;;;;;7.70;99.90;;;6.86;100.00;97728.88;5030083;28;1340;-71
2024/01/22 06:41:25;;;;;;;;;;;7.70;99.90;;;6.81;100.00;97787.47;5042194;28;1407;-71
2024/01/22 06:43:52;;;;;;;;;;;7.60;99.90;;;6.55;100.00;97778.63;5021603;28;1461;-71
2024/01/22 06:46:19;;;;;;;;;;;7.40;99.90;;;6.26;100.00;97746.63;5040664;28;1032;-71
2024/01/22 06:48:47;;;;;;;;;;;7.30;99.90;;;6.02;100.00;97851.09;5039201;28;1149;-71
2024/01/22 06:51:14;;;;;;;;;;;7.10;99.90;;;5.87;100.00;97774.06;5026506;28;1902;-71
2024/01/22 06:53:41;;;;;;;;;;;7.00;99.90;;;5.96;100.00;97809.16;5043393;28;1308;-72
2024/01/22 06:56:09;;;;;;;;;;;6.90;99.90;;;5.75;100.00;97803.50;5048478;28;1179;-71
2024/01/22 06:58:36;;;;;;;;;;;6.80;99.90;;;5.79;100.00;97812.88;5029995;28;1141;-71
2024/01/22 07:01:04;;;;;;;;;;;6.80;99.90;;;5.82;100.00;97812.81;5031915;28;1103;-71
2024/01/22 07:03:31;;;;;;;;;;;6.70;99.90;;;5.60;100.00;97852.72;5045648;28;1355;-70
2024/01/22 07:05:58;;;;;;;;;;;6.60;99.90;;;5.60;100.00;97922.25;5028765;28;1078;-71
2024/01/22 07:08:26;;;;;;;;;;;6.40;99.90;;;5.60;100.00;97901.66;5039912;28;1159;-72
2024/01/22 07:10:52;;;;;;;;;;;6.40;99.90;;;5.49;100.00;97906.97;5039695;28;1153;-70
2024/01/22 07:13:19;;;;;;;;;;;6.40;99.90;;;5.39;100.00;97928.63;5027855;28;1918;-71
2024/01/22 07:15:46;;;;;;;;;;;6.30;99.90;;;5.38;100.00;97903.72;5021632;28;1391;-71
2024/01/22 07:18:13;;;;;;;;;;;6.20;99.90;;;5.36;100.00;97903.78;5041391;28;1149;-70
2024/01/22 07:20:40;;;;;;;;;;;6.20;99.90;;;5.22;100.00;97891.13;5038920;28;1100;-71
2024/01/22 07:23:07;;;;;;;;;;;6.10;99.90;;;5.20;100.00;97900.59;5029027;28;1056;-71
2024/01/22 07:25:36;;;;;;;;;;;6.10;99.90;;;5.21;100.00;97884.28;5043654;28;1347;-70
2024/01/22 07:28:04;;;;;;;;;;;6.10;99.90;;;5.11;100.00;97923.91;5045970;28;1093;-70
2024/01/22 07:30:31;;;;;;;;;;;6.00;99.90;;;5.14;100.00;97882.69;5025366;28;1019;-71
2024/01/22 07:32:58;;;;;;;;;;;6.10;99.90;;;5.22;100.00;97815.63;5040008;28;1975;-71
2024/01/22 07:35:25;;;;;;;;;;;6.10;99.90;;;5.16;100.00;97852.63;5040808;28;1414;-71
2024/01/22 07:37:52;;;;;;;;;;;6.10;99.90;;;5.24;100.00;97893.66;5042239;28;1087;-70
2024/01/22 07:40:19;;;;;;;;;;;6.10;99.90;;;5.19;100.00;97857.72;5044006;28;1088;-71
2024/01/22 07:42:46;;;;;;;;;;;6.00;99.90;;;5.14;100.00;97859.50;5038876;28;1980;-70
2024/01/22 07:45:14;;;;;;;;;;;6.10;99.90;;;5.21;100.00;97902.28;5041804;28;1312;-70
2024/01/22 07:47:42;;;;;;;;;;;6.10;99.90;;;5.36;100.00;97895.19;5039689;28;1097;-70
2024/01/22 07:50:10;;;;;;;;;;;6.20;99.90;;;5.20;100.00;97886.84;5041466;28;1074;-70
2024/01/22 07:52:38;;;;;;;;;;;6.20;99.90;;;5.34;100.00;97920.13;5028854;28;1926;-70
2024/01/22 07:55:06;;;;;;;;;;;6.10;99.90;;;5.31;100.00;97904.72;5038415;28;1419;-70
2024/01/22 07:57:33;;;;;;;;;;;6.10;99.90;;;5.34;100.00;97917.56;5038586;28;1180;-71
2024/01/22 08:00:02;;;;;;;;;;;6.10;99.90;;;5.27;100.00;97901.34;5028123;28;1120;-71
2024/01/22 08:02:29;;;;;;;;;;;6.10;99.90;;;5.30;100.00;97909.00;5039024;28;1023;-71
2024/01/22 08:04:57;;;;;;;;;;;6.20;99.90;;;5.34;100.00;97918.41;5039760;28;1320;-71
2024/01/22 08:07:24;;;;;;;;;;;6.20;99.90;;;5.40;100.00;97912.28;5043524;28;1656;-71
2024/01/22 08:09:52;;;;;;;;;;;6.20;99.90;;;5.37;100.00;97904.63;5035763;28;1077;-71
2024/01/22 08:12:18;;;;;;;;;;;6.20;99.90;;;5.43;100.00;97919.97;5040769;28;1910;-70
2024/01/22 08:14:45;;;;;;;;;;;6.20;99.90;;;5.50;100.00;97943.91;5027979;28;1406;-71
2024/01/22 08:17:12;;;;;;;;;;;6.30;99.90;;;5.63;100.00;97933.38;5046396;28;1612;-71
2024/01/22 08:19:39;;;;;;;;;;;6.40;99.90;;;5.52;100.00;97931.81;5003764;28;1017;-70
2024/01/22 08:22:06;;;;;;;;;;;6.40;99.90;;;5.60;100.00;97910.22;5024360;28;1450;-70
2024/01/22 08:24:33;;;;;;;;;;;6.50;99.90;;;5.73;100.00;97910.88;5042326;28;1336;-70
2024/01/22 08:27:01;;;;;;;;;;;6.60;99.90;;;5.76;100.00;97905.66;5024665;28;1413;-71
2024/01/22 08:29:28;;;;;;;;;;;6.60;99.90;;;5.85;100.00;97980.19;5039352;28;1143;-70
2024/01/22 08:31:55;;;;;;;;;;;6.60;99.90;;;6.08;100.00;97914.53;5024918;28;1906;-71
2024/01/22 08:34:22;;;;;;;;;;;6.70;99.90;;;6.02;100.00;97919.78;5043682;28;1394;-69
2024/01/22 08:36:49;;;;;;;;;;;6.80;99.90;;;6.14;100.00;97911.00;5024423;28;1244;-70
2024/01/22 08:39:16;;;;;;;;;;;6.80;99.90;;;6.08;100.00;97863.00;5040697;28;1225;-71
2024/01/22 08:41:43;;;;;;;;;;;6.90;99.90;;;6.14;100.00;97919.59;5022508;28;1288;-71
2024/01/22 08:44:10;;;;;;;;;;;6.90;99.90;;;6.46;100.00;97955.03;5043508;28;1347;-70
2024/01/22 08:46:37;;;;;;;;;;;7.00;99.90;;;6.25;100.00;97945.16;5040135;28;1005;-71
2024/01/22 08:49:04;;;;;;;;;;;7.00;99.90;;;6.26;100.00;97895.28;5024727;28;1365;-70
2024/01/22 08:51:31;;;;;;;;;;;7.00;99.90;;;6.31;100.00;97913.25;5037888;28;1060;-71
2024/01/22 08:53:58;;;;;;;;;;;7.10;99.90;;;6.34;100.00;97934.66;5038733;28;1918;-70
2024/01/22 08:56:25;;;;;;;;;;;7.10;99.90;;;6.48;100.00;97916.34;5023253;28;1235;-71
2024/01/22 08:58:52;;;;;;;;;;;7.20;99.90;;;6.48;100.00;97878.50;5037523;28;1254;-71
2024/01/22 09:01:19;;;;;;;;;;;7.20;99.90;;;6.56;100.00;97919.59;5038892;28;1093;-71
2024/01/22 09:03:46;;;;;;;;;;;7.30;99.90;;;6.55;100.00;97917.91;5037624;28;1426;-70
2024/01/22 09:06:13;;;;;;;;;;;7.20;99.90;;;6.65;100.00;97901.34;5038099;28;1070;-71
2024/01/22 09:08:40;;;;;;;;;;;7.30;99.90;;;6.61;100.00;97853.28;5040843;28;1024;-70
2024/01/22 09:11:08;;;;;;;;;;;7.40;99.90;;;6.73;100.00;97851.28;5036732;28;1109;-70
2024/01/22 09:13:37;;;;;;;;;;;7.40;99.90;;;6.72;100.00;97804.03;5034743;28;1985;-72
2024/01/22 09:16:05;;;;;;;;;;;7.50;99.90;;;6.74;100.00;97845.28;5037450;28;1220;-70
2024/01/22 09:18:32;;;;;;;;;;;7.50;99.90;;;6.77;100.00;97883.88;5023618;28;1153;-70
2024/01/22 09:21:00;;;;;;;;;;;7.50;99.90;;;6.89;100.00;97892.22;5037933;28;1085;-71
2024/01/22 09:23:28;;;;;;;;;;;7.50;99.90;;;6.78;100.00;97859.81;5025659;28;1162;-70
2024/01/22 09:25:54;;;;;;;;;;;7.60;99.90;;;6.80;100.00;97837.41;5037619;28;1177;-70
2024/01/22 09:28:22;;;;;;;;;;;7.60;99.90;;;6.70;100.00;97834.16;5039291;28;1163;-70
2024/01/22 09:30:49;;;;;;;;;;;7.50;99.90;;;6.68;100.00;97880.66;5039935;28;1129;-70
2024/01/22 09:33:16;;;;;;;;;;;7.40;99.90;;;6.76;100.00;97851.25;5021945;28;1902;-70
2024/01/22 09:35:43;;;;;;;;;;;7.40;99.90;;;6.87;100.00;97810.56;5037474;28;1296;-71
2024/01/22 09:38:10;;;;;;;;;;;7.60;99.90;;;6.93;100.00;97895.56;5024430;28;1089;-70
2024/01/22 09:40:37;;;;;;;;;;;7.60;99.90;;;6.97;100.00;97839.56;5024966;28;1158;-71
2024/01/22 09:43:04;;;;;;;;;;;7.70;99.90;;;6.80;100.00;97806.44;5023650;28;1073;-71
2024/01/22 09:45:33;;;;;;;;;;;7.60;99.90;;;6.90;100.00;97846.59;5020598;28;1308;-70
2024/01/22 09:48:00;;;;;;;;;;;7.60;99.90;;;6.73;100.00;97808.31;5039919;28;1077;-70
2024/01/22 09:50:28;;;;;;;;;;;7.60;99.90;;;6.83;100.00;97822.69;5025650;28;1184;-71
2024/01/22 09:53:08;;;;;;;;;;;7.50;99.90;;;6.72;100.00;97823.81;5038964;28;1938;-71
2024/01/22 09:55:40;;;;;;;;;;;7.60;99.90;;;6.66;100.00;97784.38;5036828;28;1441;-70
2024/01/22 09:58:09;;;;;;;;;;;7.50;99.90;;;6.72;100.00;97823.81;5040279;28;1101;-70
2024/01/22 10:00:37;;;;;;;;;;;7.50;99.90;;;6.81;100.00;97854.56;5037426;28;1224;-69
2024/01/22 10:03:05;;;;;;;;;;;7.50;99.90;;;6.65;100.00;97766.38;5035884;28;1427;-71
2024/01/22 10:05:32;;;;;;;;;;;7.50;99.90;;;6.69;100.00;97797.19;5024099;28;1311;-70
2024/01/22 10:07:59;;;;;;;;;;;7.50;99.90;;;6.81;100.00;97827.03;5038431;28;1207;-70
2024/01/22 10:10:26;;;;;;;;;;;7.40;99.90;;;6.76;100.00;97817.72;5038904;28;1374;-70
2024/01/22 10:13:04;;;;;;;;;;;7.40;99.90;;;6.76;100.00;97786.75;5023811;28;1988;-70
2024/01/22 10:15:32;;;;;;;;;;;7.50;99.90;;;6.68;100.00;97763.69;5033314;28;1726;-70
2024/01/22 10:18:13;;;;;;;;;;;7.50;99.90;;;6.68;100.00;97831.63;5038450;28;1047;-70
2024/01/22 10:20:42;;;;;;;;;;;7.50;99.90;;;6.74;100.00;97770.47;5038872;28;1177;-70
2024/01/22 10:23:10;;;;;;;;;;;7.40;99.90;;;6.67;100.00;97813.59;5022918;28;1179;-70
2024/01/22 10:25:38;;;;;;;;;;;7.50;99.90;;;6.82;100.00;97797.78;5036539;28;1747;-70
2024/01/22 10:28:14;;;;;;;;;;;7.50;99.90;;;6.70;100.00;97746.44;5037306;28;1364;-70
2024/01/22 10:30:42;;;;;;;;;;;7.40;99.90;;;6.80;100.00;97776.31;5038949;28;1329;-70
2024/01/22 10:33:13;;;;;;;;;;;7.50;99.90;;;6.77;100.00;97776.38;5035493;28;1902;-71
2024/01/22 10:35:42;;;;;;;;;;;7.60;99.90;;;6.89;100.00;97790.72;5028733;28;1359;-71
2024/01/22 10:38:16;;;;;;;;;;;7.50;99.90;;;6.89;100.00;97776.09;5043352;28;1580;-70
2024/01/22 10:40:47;;;;;;;;;;;7.60;99.90;;;6.87;100.00;97820.88;5025085;28;1485;-71
2024/01/22 10:43:27;;;;;;;;;;;7.60;99.90;;;6.84;100.00;97788.25;5030425;28;1536;-71
2024/01/22 10:45:57;;;;;;;;;;;7.60;99.90;;;6.78;100.00;97765.19;5030299;28;1398;-70
2024/01/22 10:48:29;;;;;;;;;;;7.60;99.90;;;6.79;100.00;97760.88;5046458;28;1242;-71
2024/01/22 10:51:10;;;;;;;;;;;7.60;99.90;;;6.96;100.00;97805.19;5041965;28;1400;-70
2024/01/22 10:53:38;;;;;;;;;;;7.70;99.90;;;6.88;100.00;97740.84;5026511;28;1981;-70
2024/01/22 10:56:23;;;;;;;;;;;7.70;99.90;;;7.04;100.00;97776.59;5040505;28;2034;-71
2024/01/22 10:58:51;;;;;;;;;;;7.70;99.90;;;7.01;100.00;97701.84;5028352;28;1251;-70
2024/01/22 11:01:24;;;;;;;;;;;7.80;99.90;;;7.17;100.00;97765.06;5039011;28;1243;-70
2024/01/22 11:03:53;;;;;;;;;;;7.80;99.90;;;7.22;100.00;97791.59;5029282;28;1272;-70
2024/01/22 11:06:24;;;;;;;;;;;7.90;99.90;;;7.22;100.00;97776.13;5028281;28;1412;-70
2024/01/22 11:08:54;;;;;;;;;;;7.90;99.90;;;7.15;100.00;97772.00;5043504;28;1493;-70
2024/01/22 11:11:26;;;;;;;;;;;8.00;99.90;;;7.25;100.00;97783.81;5030169;28;1640;-70
2024/01/22 11:13:56;;;;;;;;;;;8.00;99.90;;;7.24;100.00;97784.66;5039311;28;2039;-70
2024/01/22 11:16:23;;;;;;;;;;;8.00;99.90;;;7.20;100.00;97674.63;5039223;28;1132;-70
2024/01/22 11:18:57;;;;;;;;;;;8.00;99.90;;;7.29;100.00;97761.31;5042429;28;1122;-70
2024/01/22 11:21:33;;;;;;;;;;;8.10;99.90;;;7.40;100.00;97761.88;5032443;28;1146;-70
2024/01/22 11:24:04;;;;;;;;;;;8.10;99.90;;;7.35;100.00;97747.41;5046977;28;1403;-70
2024/01/22 11:26:33;;;;;;;;;;;8.10;99.90;;;7.19;100.00;97767.63;5042623;28;1170;-69
2024/01/22 11:29:07;;;;;;;;;;;8.00;99.90;;;7.18;100.00;97742.66;5030623;28;1129;-70
2024/01/22 11:31:35;;;;;;;;;;;8.00;99.90;;;7.35;100.00;97854.13;5029938;28;1187;-70
2024/01/22 11:34:03;;;;;;;;;;;8.00;99.90;;;7.41;100.00;97773.91;5040759;28;1914;-71
2024/01/22 11:36:53;;;;;;;;;;;8.10;99.90;;;7.43;100.00;97743.69;5041475;28;1049;-70